Terminal Aerodrome Forecast
Issued by NWS Mt. Holly, NJ

Home | Current Version | Previous Version | Text Only | Print | Product List | Glossary On
Versions: 1 2 3 4 5 6 7 8 9 10 11 12 13 14 15 16 17 18 19 20 21
570
FTUS41 KPHI 291457 AAA
TAFPHL
TAF AMD
KPHL 291457Z 2915/3018 21006KT P6SM BKN200
     FM300100 20006KT P6SM -SHRA FEW030 OVC060
      TEMPO 3003/3007 4SM SHRA BKN020
     FM300900 03003KT 6SM -RA BR OVC020
      TEMPO 3010/3014 2SM +RA BR OVC007
     FM301700 VRB03KT 4SM -SHRA BR OVC010=

USA.gov is the U.S. government's official web portal to all federal, state and local government web resources and services.